sensor_id;sensor_type;location;lat;lon;timestamp;P1;durP1;ratioP1;P2;durP2;ratioP2
59555;SDS011;45374;52.746;6.304;2022-07-18T00:01:27;24.95;;;10.70;;
59555;SDS011;45374;52.746;6.304;2022-07-18T00:03:53;31.95;;;11.20;;
59555;SDS011;45374;52.746;6.304;2022-07-18T00:06:19;27.13;;;11.48;;
59555;SDS011;45374;52.746;6.304;2022-07-18T00:08:44;17.77;;;7.88;;
59555;SDS011;45374;52.746;6.304;2022-07-18T00:11:10;16.92;;;7.47;;
59555;SDS011;45374;52.746;6.304;2022-07-18T00:13:36;24.30;;;10.15;;
59555;SDS011;45374;52.746;6.304;2022-07-18T00:19:42;16.35;;;6.95;;
59555;SDS011;45374;52.746;6.304;2022-07-18T00:22:08;16.73;;;7.50;;
59555;SDS011;45374;52.746;6.304;2022-07-18T00:24:34;21.13;;;10.05;;
59555;SDS011;45374;52.746;6.304;2022-07-18T00:30:43;24.13;;;10.50;;
59555;SDS011;45374;52.746;6.304;2022-07-18T00:33:08;22.73;;;9.73;;
59555;SDS011;45374;52.746;6.304;2022-07-18T00:35:34;14.85;;;6.82;;
59555;SDS011;45374;52.746;6.304;2022-07-18T00:38:00;15.23;;;7.43;;
59555;SDS011;45374;52.746;6.304;2022-07-18T00:40:29;23.88;;;10.82;;
59555;SDS011;45374;52.746;6.304;2022-07-18T00:42:55;21.83;;;9.77;;
59555;SDS011;45374;52.746;6.304;2022-07-18T00:49:02;20.27;;;10.25;;
59555;SDS011;45374;52.746;6.304;2022-07-18T00:51:28;26.23;;;11.50;;
59555;SDS011;45374;52.746;6.304;2022-07-18T00:53:53;28.02;;;10.88;;
59555;SDS011;45374;52.746;6.304;2022-07-18T00:56:19;21.73;;;10.15;;
59555;SDS011;45374;52.746;6.304;2022-07-18T00:58:45;26.23;;;11.40;;
59555;SDS011;45374;52.746;6.304;2022-07-18T01:01:12;20.00;;;8.40;;
59555;SDS011;45374;52.746;6.304;2022-07-18T01:03:56;20.20;;;8.82;;
59555;SDS011;45374;52.746;6.304;2022-07-18T01:06:21;26.20;;;11.38;;
59555;SDS011;45374;52.746;6.304;2022-07-18T01:08:47;26.85;;;11.63;;
59555;SDS011;45374;52.746;6.304;2022-07-18T01:11:13;25.40;;;11.85;;
59555;SDS011;45374;52.746;6.304;2022-07-18T01:13:39;23.20;;;9.20;;
59555;SDS011;45374;52.746;6.304;2022-07-18T01:16:06;25.45;;;11.43;;
59555;SDS011;45374;52.746;6.304;2022-07-18T01:18:31;25.13;;;11.23;;
59555;SDS011;45374;52.746;6.304;2022-07-18T01:20:57;25.88;;;11.70;;
59555;SDS011;45374;52.746;6.304;2022-07-18T01:23:23;29.13;;;12.43;;
59555;SDS011;45374;52.746;6.304;2022-07-18T01:25:49;33.75;;;13.20;;
59555;SDS011;45374;52.746;6.304;2022-07-18T01:28:15;27.85;;;12.00;;
59555;SDS011;45374;52.746;6.304;2022-07-18T01:30:40;32.35;;;12.52;;
59555;SDS011;45374;52.746;6.304;2022-07-18T01:33:06;34.47;;;13.32;;
59555;SDS011;45374;52.746;6.304;2022-07-18T01:39:13;37.38;;;15.27;;
59555;SDS011;45374;52.746;6.304;2022-07-18T01:41:38;30.83;;;13.27;;
59555;SDS011;45374;52.746;6.304;2022-07-18T01:44:05;29.23;;;13.05;;
59555;SDS011;45374;52.746;6.304;2022-07-18T01:46:31;27.92;;;11.82;;
59555;SDS011;45374;52.746;6.304;2022-07-18T01:48:57;33.17;;;13.15;;
59555;SDS011;45374;52.746;6.304;2022-07-18T01:51:23;26.35;;;12.63;;
59555;SDS011;45374;52.746;6.304;2022-07-18T01:53:56;31.73;;;12.88;;
59555;SDS011;45374;52.746;6.304;2022-07-18T01:56:24;29.38;;;11.55;;
59555;SDS011;45374;52.746;6.304;2022-07-18T01:58:50;28.75;;;11.48;;
59555;SDS011;45374;52.746;6.304;2022-07-18T02:01:15;28.17;;;12.70;;
59555;SDS011;45374;52.746;6.304;2022-07-18T02:03:41;27.83;;;11.80;;
59555;SDS011;45374;52.746;6.304;2022-07-18T02:06:07;14.77;;;5.47;;
59555;SDS011;45374;52.746;6.304;2022-07-18T02:08:32;8.43;;;3.85;;
59555;SDS011;45374;52.746;6.304;2022-07-18T02:10:58;16.65;;;5.55;;
59555;SDS011;45374;52.746;6.304;2022-07-18T02:17:05;16.75;;;7.32;;
59555;SDS011;45374;52.746;6.304;2022-07-18T02:19:30;14.70;;;7.25;;
59555;SDS011;45374;52.746;6.304;2022-07-18T02:21:56;16.38;;;7.70;;
59555;SDS011;45374;52.746;6.304;2022-07-18T02:24:22;24.30;;;10.52;;
59555;SDS011;45374;52.746;6.304;2022-07-18T02:26:47;19.27;;;8.95;;
59555;SDS011;45374;52.746;6.304;2022-07-18T02:29:13;23.27;;;9.02;;
59555;SDS011;45374;52.746;6.304;2022-07-18T02:31:38;24.30;;;10.52;;
59555;SDS011;45374;52.746;6.304;2022-07-18T02:34:04;24.70;;;9.98;;
59555;SDS011;45374;52.746;6.304;2022-07-18T02:36:35;24.73;;;9.40;;
59555;SDS011;45374;52.746;6.304;2022-07-18T02:42:45;20.35;;;9.10;;
59555;SDS011;45374;52.746;6.304;2022-07-18T02:45:11;27.33;;;10.52;;
59555;SDS011;45374;52.746;6.304;2022-07-18T02:47:36;21.75;;;9.32;;
59555;SDS011;45374;52.746;6.304;2022-07-18T02:50:02;12.82;;;5.63;;
59555;SDS011;45374;52.746;6.304;2022-07-18T02:52:28;23.45;;;10.45;;
59555;SDS011;45374;52.746;6.304;2022-07-18T02:54:54;25.23;;;10.77;;
59555;SDS011;45374;52.746;6.304;2022-07-18T02:57:21;25.55;;;10.43;;
59555;SDS011;45374;52.746;6.304;2022-07-18T02:59:47;24.50;;;9.85;;
59555;SDS011;45374;52.746;6.304;2022-07-18T03:02:13;18.20;;;8.27;;
59555;SDS011;45374;52.746;6.304;2022-07-18T03:04:38;29.08;;;5.22;;
59555;SDS011;45374;52.746;6.304;2022-07-18T03:07:04;9.88;;;4.65;;
59555;SDS011;45374;52.746;6.304;2022-07-18T03:09:30;15.55;;;7.07;;
59555;SDS011;45374;52.746;6.304;2022-07-18T03:11:56;20.60;;;8.32;;
59555;SDS011;45374;52.746;6.304;2022-07-18T03:14:21;18.33;;;7.75;;
59555;SDS011;45374;52.746;6.304;2022-07-18T03:16:47;24.15;;;8.48;;
59555;SDS011;45374;52.746;6.304;2022-07-18T03:22:54;26.25;;;10.25;;
59555;SDS011;45374;52.746;6.304;2022-07-18T03:25:19;25.13;;;9.95;;
59555;SDS011;45374;52.746;6.304;2022-07-18T03:27:45;26.80;;;9.95;;
59555;SDS011;45374;52.746;6.304;2022-07-18T03:30:11;21.80;;;9.70;;
59555;SDS011;45374;52.746;6.304;2022-07-18T03:32:37;25.75;;;9.88;;
59555;SDS011;45374;52.746;6.304;2022-07-18T03:35:02;26.10;;;10.68;;
59555;SDS011;45374;52.746;6.304;2022-07-18T03:37:28;24.70;;;10.55;;
59555;SDS011;45374;52.746;6.304;2022-07-18T03:39:54;22.83;;;9.45;;
59555;SDS011;45374;52.746;6.304;2022-07-18T03:42:19;18.88;;;8.40;;
59555;SDS011;45374;52.746;6.304;2022-07-18T03:44:45;20.65;;;8.70;;
59555;SDS011;45374;52.746;6.304;2022-07-18T03:47:11;24.13;;;10.77;;
59555;SDS011;45374;52.746;6.304;2022-07-18T03:49:36;17.52;;;8.05;;
59555;SDS011;45374;52.746;6.304;2022-07-18T03:52:02;19.80;;;7.93;;
59555;SDS011;45374;52.746;6.304;2022-07-18T03:54:28;19.35;;;7.90;;
59555;SDS011;45374;52.746;6.304;2022-07-18T03:56:54;22.73;;;8.85;;
59555;SDS011;45374;52.746;6.304;2022-07-18T03:59:19;21.67;;;8.65;;
59555;SDS011;45374;52.746;6.304;2022-07-18T04:01:45;26.52;;;10.15;;
59555;SDS011;45374;52.746;6.304;2022-07-18T04:04:10;30.30;;;10.98;;
59555;SDS011;45374;52.746;6.304;2022-07-18T04:06:36;26.27;;;9.45;;
59555;SDS011;45374;52.746;6.304;2022-07-18T04:09:02;25.00;;;10.07;;
59555;SDS011;45374;52.746;6.304;2022-07-18T04:11:28;29.58;;;12.00;;
59555;SDS011;45374;52.746;6.304;2022-07-18T04:13:54;33.22;;;13.10;;
59555;SDS011;45374;52.746;6.304;2022-07-18T04:16:20;28.33;;;12.43;;
59555;SDS011;45374;52.746;6.304;2022-07-18T04:18:46;34.90;;;12.80;;
59555;SDS011;45374;52.746;6.304;2022-07-18T04:21:12;35.67;;;13.18;;
59555;SDS011;45374;52.746;6.304;2022-07-18T04:23:38;35.53;;;14.13;;
59555;SDS011;45374;52.746;6.304;2022-07-18T04:26:04;38.28;;;14.82;;
59555;SDS011;45374;52.746;6.304;2022-07-18T04:28:30;44.50;;;15.40;;
59555;SDS011;45374;52.746;6.304;2022-07-18T04:30:56;39.75;;;15.38;;
59555;SDS011;45374;52.746;6.304;2022-07-18T04:33:22;35.92;;;14.65;;
59555;SDS011;45374;52.746;6.304;2022-07-18T04:35:48;38.78;;;15.23;;
59555;SDS011;45374;52.746;6.304;2022-07-18T04:38:14;39.67;;;14.68;;
59555;SDS011;45374;52.746;6.304;2022-07-18T04:40:40;40.47;;;14.38;;
59555;SDS011;45374;52.746;6.304;2022-07-18T04:43:06;35.60;;;14.13;;
59555;SDS011;45374;52.746;6.304;2022-07-18T04:45:33;35.40;;;14.32;;
59555;SDS011;45374;52.746;6.304;2022-07-18T04:48:00;42.30;;;14.77;;
59555;SDS011;45374;52.746;6.304;2022-07-18T04:50:26;39.70;;;15.15;;
59555;SDS011;45374;52.746;6.304;2022-07-18T04:52:55;36.05;;;13.57;;
59555;SDS011;45374;52.746;6.304;2022-07-18T04:55:22;36.47;;;14.65;;
59555;SDS011;45374;52.746;6.304;2022-07-18T04:57:49;38.28;;;14.60;;
59555;SDS011;45374;52.746;6.304;2022-07-18T05:00:16;36.95;;;14.30;;
59555;SDS011;45374;52.746;6.304;2022-07-18T05:02:45;40.03;;;14.38;;
59555;SDS011;45374;52.746;6.304;2022-07-18T05:05:12;38.45;;;14.65;;
59555;SDS011;45374;52.746;6.304;2022-07-18T05:07:40;38.35;;;15.05;;
59555;SDS011;45374;52.746;6.304;2022-07-18T05:10:07;36.72;;;14.48;;
59555;SDS011;45374;52.746;6.304;2022-07-18T05:12:34;38.55;;;15.15;;
59555;SDS011;45374;52.746;6.304;2022-07-18T05:15:01;36.22;;;14.43;;
59555;SDS011;45374;52.746;6.304;2022-07-18T05:17:29;37.22;;;14.65;;
59555;SDS011;45374;52.746;6.304;2022-07-18T05:19:54;38.75;;;14.57;;
59555;SDS011;45374;52.746;6.304;2022-07-18T05:22:20;40.10;;;15.60;;
59555;SDS011;45374;52.746;6.304;2022-07-18T05:24:46;36.50;;;15.93;;
59555;SDS011;45374;52.746;6.304;2022-07-18T05:27:11;41.13;;;14.90;;
59555;SDS011;45374;52.746;6.304;2022-07-18T05:29:37;39.78;;;15.35;;
59555;SDS011;45374;52.746;6.304;2022-07-18T05:32:02;38.40;;;14.30;;
59555;SDS011;45374;52.746;6.304;2022-07-18T05:34:28;42.63;;;15.65;;
59555;SDS011;45374;52.746;6.304;2022-07-18T05:36:55;40.22;;;15.73;;
59555;SDS011;45374;52.746;6.304;2022-07-18T05:39:20;42.50;;;14.63;;
59555;SDS011;45374;52.746;6.304;2022-07-18T05:41:46;38.92;;;14.82;;
59555;SDS011;45374;52.746;6.304;2022-07-18T05:44:11;32.97;;;13.38;;
59555;SDS011;45374;52.746;6.304;2022-07-18T05:46:37;34.67;;;14.15;;
59555;SDS011;45374;52.746;6.304;2022-07-18T05:49:03;34.10;;;14.32;;
59555;SDS011;45374;52.746;6.304;2022-07-18T05:51:28;34.97;;;14.35;;
59555;SDS011;45374;52.746;6.304;2022-07-18T05:53:54;33.72;;;14.45;;
59555;SDS011;45374;52.746;6.304;2022-07-18T05:56:19;34.42;;;13.75;;
59555;SDS011;45374;52.746;6.304;2022-07-18T05:58:45;33.00;;;12.30;;
59555;SDS011;45374;52.746;6.304;2022-07-18T06:01:11;36.42;;;13.15;;
59555;SDS011;45374;52.746;6.304;2022-07-18T06:03:41;30.48;;;12.70;;
59555;SDS011;45374;52.746;6.304;2022-07-18T06:06:07;30.35;;;11.90;;
59555;SDS011;45374;52.746;6.304;2022-07-18T06:08:33;33.92;;;12.13;;
59555;SDS011;45374;52.746;6.304;2022-07-18T06:10:58;31.58;;;11.73;;
59555;SDS011;45374;52.746;6.304;2022-07-18T06:13:24;30.15;;;11.45;;
59555;SDS011;45374;52.746;6.304;2022-07-18T06:15:50;26.33;;;10.85;;
59555;SDS011;45374;52.746;6.304;2022-07-18T06:18:15;24.67;;;10.50;;
59555;SDS011;45374;52.746;6.304;2022-07-18T06:20:41;24.85;;;10.65;;
59555;SDS011;45374;52.746;6.304;2022-07-18T06:23:06;25.88;;;11.25;;
59555;SDS011;45374;52.746;6.304;2022-07-18T06:25:32;28.08;;;11.32;;
59555;SDS011;45374;52.746;6.304;2022-07-18T06:27:58;28.20;;;10.88;;
59555;SDS011;45374;52.746;6.304;2022-07-18T06:34:04;31.40;;;10.80;;
59555;SDS011;45374;52.746;6.304;2022-07-18T06:36:30;35.88;;;11.73;;
59555;SDS011;45374;52.746;6.304;2022-07-18T06:38:56;31.08;;;11.75;;
59555;SDS011;45374;52.746;6.304;2022-07-18T06:41:21;25.95;;;11.40;;
59555;SDS011;45374;52.746;6.304;2022-07-18T06:43:47;29.98;;;12.10;;
59555;SDS011;45374;52.746;6.304;2022-07-18T06:46:13;29.02;;;11.77;;
59555;SDS011;45374;52.746;6.304;2022-07-18T06:48:38;28.85;;;11.60;;
59555;SDS011;45374;52.746;6.304;2022-07-18T06:54:45;30.63;;;12.13;;
59555;SDS011;45374;52.746;6.304;2022-07-18T06:57:10;32.65;;;11.82;;
59555;SDS011;45374;52.746;6.304;2022-07-18T06:59:36;30.80;;;12.65;;
59555;SDS011;45374;52.746;6.304;2022-07-18T07:02:02;31.90;;;11.90;;
59555;SDS011;45374;52.746;6.304;2022-07-18T07:08:09;32.45;;;11.25;;
59555;SDS011;45374;52.746;6.304;2022-07-18T07:10:35;32.53;;;11.95;;
59555;SDS011;45374;52.746;6.304;2022-07-18T07:13:00;22.33;;;10.50;;
59555;SDS011;45374;52.746;6.304;2022-07-18T07:15:26;25.25;;;9.95;;
59555;SDS011;45374;52.746;6.304;2022-07-18T07:17:52;25.85;;;9.50;;
59555;SDS011;45374;52.746;6.304;2022-07-18T07:20:18;25.88;;;9.82;;
59555;SDS011;45374;52.746;6.304;2022-07-18T07:22:50;24.85;;;9.15;;
59555;SDS011;45374;52.746;6.304;2022-07-18T07:25:17;19.60;;;9.57;;
59555;SDS011;45374;52.746;6.304;2022-07-18T07:27:44;20.60;;;9.80;;
59555;SDS011;45374;52.746;6.304;2022-07-18T07:30:10;22.10;;;9.95;;
59555;SDS011;45374;52.746;6.304;2022-07-18T07:32:38;22.55;;;9.13;;
59555;SDS011;45374;52.746;6.304;2022-07-18T07:35:05;20.30;;;9.60;;
59555;SDS011;45374;52.746;6.304;2022-07-18T07:37:35;25.45;;;10.32;;
59555;SDS011;45374;52.746;6.304;2022-07-18T07:40:00;19.65;;;9.13;;
59555;SDS011;45374;52.746;6.304;2022-07-18T07:42:26;19.45;;;8.73;;
59555;SDS011;45374;52.746;6.304;2022-07-18T07:44:51;21.83;;;8.68;;
59555;SDS011;45374;52.746;6.304;2022-07-18T07:47:17;22.40;;;8.65;;
59555;SDS011;45374;52.746;6.304;2022-07-18T07:49:43;19.98;;;8.32;;
59555;SDS011;45374;52.746;6.304;2022-07-18T07:52:08;18.77;;;7.65;;
59555;SDS011;45374;52.746;6.304;2022-07-18T07:54:36;20.92;;;8.05;;
59555;SDS011;45374;52.746;6.304;2022-07-18T07:57:02;20.98;;;7.32;;
59555;SDS011;45374;52.746;6.304;2022-07-18T08:03:08;13.82;;;6.57;;
59555;SDS011;45374;52.746;6.304;2022-07-18T08:05:37;13.75;;;6.43;;
59555;SDS011;45374;52.746;6.304;2022-07-18T08:08:08;21.60;;;6.43;;
59555;SDS011;45374;52.746;6.304;2022-07-18T08:10:34;15.07;;;5.97;;
59555;SDS011;45374;52.746;6.304;2022-07-18T08:12:59;12.63;;;6.15;;
59555;SDS011;45374;52.746;6.304;2022-07-18T08:15:25;13.07;;;6.05;;
59555;SDS011;45374;52.746;6.304;2022-07-18T08:17:52;14.63;;;6.03;;
59555;SDS011;45374;52.746;6.304;2022-07-18T08:20:18;17.45;;;5.72;;
59555;SDS011;45374;52.746;6.304;2022-07-18T08:22:55;12.60;;;4.85;;
59555;SDS011;45374;52.746;6.304;2022-07-18T08:29:03;12.02;;;4.90;;
59555;SDS011;45374;52.746;6.304;2022-07-18T08:31:28;17.52;;;4.82;;
59555;SDS011;45374;52.746;6.304;2022-07-18T08:33:54;16.63;;;5.45;;
59555;SDS011;45374;52.746;6.304;2022-07-18T08:36:20;12.90;;;4.80;;
59555;SDS011;45374;52.746;6.304;2022-07-18T08:38:45;12.90;;;4.65;;
59555;SDS011;45374;52.746;6.304;2022-07-18T08:41:11;12.82;;;4.82;;
59555;SDS011;45374;52.746;6.304;2022-07-18T08:43:37;12.57;;;4.68;;
59555;SDS011;45374;52.746;6.304;2022-07-18T08:46:04;10.13;;;4.10;;
59555;SDS011;45374;52.746;6.304;2022-07-18T08:48:31;15.07;;;5.00;;
59555;SDS011;45374;52.746;6.304;2022-07-18T08:50:58;11.75;;;4.30;;
59555;SDS011;45374;52.746;6.304;2022-07-18T08:53:25;16.13;;;5.40;;
59555;SDS011;45374;52.746;6.304;2022-07-18T08:55:53;23.13;;;5.05;;
59555;SDS011;45374;52.746;6.304;2022-07-18T08:58:19;14.13;;;5.35;;
59555;SDS011;45374;52.746;6.304;2022-07-18T09:00:45;14.77;;;5.13;;
59555;SDS011;45374;52.746;6.304;2022-07-18T09:03:12;16.70;;;4.78;;
59555;SDS011;45374;52.746;6.304;2022-07-18T09:05:38;16.15;;;4.70;;
59555;SDS011;45374;52.746;6.304;2022-07-18T09:08:11;14.15;;;4.88;;
59555;SDS011;45374;52.746;6.304;2022-07-18T09:10:52;13.45;;;4.60;;
59555;SDS011;45374;52.746;6.304;2022-07-18T09:13:23;8.98;;;4.00;;
59555;SDS011;45374;52.746;6.304;2022-07-18T09:16:06;11.68;;;4.15;;
59555;SDS011;45374;52.746;6.304;2022-07-18T09:18:37;11.45;;;4.03;;
59555;SDS011;45374;52.746;6.304;2022-07-18T09:21:11;12.02;;;4.13;;
59555;SDS011;45374;52.746;6.304;2022-07-18T09:32:47;10.55;;;3.78;;
59555;SDS011;45374;52.746;6.304;2022-07-18T09:35:18;11.32;;;3.83;;
59555;SDS011;45374;52.746;6.304;2022-07-18T09:37:51;12.70;;;3.95;;
59555;SDS011;45374;52.746;6.304;2022-07-18T09:43:05;11.32;;;4.20;;
59555;SDS011;45374;52.746;6.304;2022-07-18T09:51:14;9.80;;;4.15;;
59555;SDS011;45374;52.746;6.304;2022-07-18T09:53:43;11.82;;;4.13;;
59555;SDS011;45374;52.746;6.304;2022-07-18T09:56:10;13.07;;;4.57;;
59555;SDS011;45374;52.746;6.304;2022-07-18T09:58:55;9.02;;;4.18;;
59555;SDS011;45374;52.746;6.304;2022-07-18T10:01:22;9.13;;;4.43;;
59555;SDS011;45374;52.746;6.304;2022-07-18T10:03:48;12.40;;;4.30;;
59555;SDS011;45374;52.746;6.304;2022-07-18T10:06:15;10.95;;;3.85;;
59555;SDS011;45374;52.746;6.304;2022-07-18T10:08:41;12.02;;;4.45;;
59555;SDS011;45374;52.746;6.304;2022-07-18T10:11:07;9.05;;;3.72;;
59555;SDS011;45374;52.746;6.304;2022-07-18T10:13:34;10.70;;;4.03;;
59555;SDS011;45374;52.746;6.304;2022-07-18T10:16:01;8.93;;;3.97;;
59555;SDS011;45374;52.746;6.304;2022-07-18T10:18:28;14.95;;;4.10;;
59555;SDS011;45374;52.746;6.304;2022-07-18T10:23:29;8.55;;;3.88;;
59555;SDS011;45374;52.746;6.304;2022-07-18T10:26:33;13.05;;;4.07;;
59555;SDS011;45374;52.746;6.304;2022-07-18T10:31:59;14.20;;;4.70;;
59555;SDS011;45374;52.746;6.304;2022-07-18T10:34:28;8.88;;;4.20;;
59555;SDS011;45374;52.746;6.304;2022-07-18T10:40:38;8.40;;;4.20;;
59555;SDS011;45374;52.746;6.304;2022-07-18T10:43:38;11.65;;;4.63;;
59555;SDS011;45374;52.746;6.304;2022-07-18T10:46:08;10.93;;;4.00;;
59555;SDS011;45374;52.746;6.304;2022-07-18T10:57:17;14.75;;;5.00;;
59555;SDS011;45374;52.746;6.304;2022-07-18T10:59:58;11.10;;;4.68;;
59555;SDS011;45374;52.746;6.304;2022-07-18T11:02:34;10.77;;;4.65;;
59555;SDS011;45374;52.746;6.304;2022-07-18T11:05:00;11.80;;;5.05;;
59555;SDS011;45374;52.746;6.304;2022-07-18T11:07:26;14.48;;;5.32;;
59555;SDS011;45374;52.746;6.304;2022-07-18T11:09:51;9.60;;;4.95;;
59555;SDS011;45374;52.746;6.304;2022-07-18T11:12:27;8.18;;;4.68;;
59555;SDS011;45374;52.746;6.304;2022-07-18T11:20:22;14.18;;;4.63;;
59555;SDS011;45374;52.746;6.304;2022-07-18T11:22:52;10.07;;;4.60;;
59555;SDS011;45374;52.746;6.304;2022-07-18T11:25:19;9.95;;;4.70;;
59555;SDS011;45374;52.746;6.304;2022-07-18T11:27:45;12.07;;;4.93;;
59555;SDS011;45374;52.746;6.304;2022-07-18T11:30:18;11.60;;;5.10;;
59555;SDS011;45374;52.746;6.304;2022-07-18T11:32:44;12.68;;;5.25;;
59555;SDS011;45374;52.746;6.304;2022-07-18T11:35:10;11.27;;;5.38;;
59555;SDS011;45374;52.746;6.304;2022-07-18T11:37:37;11.85;;;5.63;;
59555;SDS011;45374;52.746;6.304;2022-07-18T11:40:06;13.05;;;5.43;;
59555;SDS011;45374;52.746;6.304;2022-07-18T11:42:40;11.63;;;5.35;;
59555;SDS011;45374;52.746;6.304;2022-07-18T11:45:07;11.00;;;5.72;;
59555;SDS011;45374;52.746;6.304;2022-07-18T11:47:51;9.88;;;5.00;;
59555;SDS011;45374;52.746;6.304;2022-07-18T11:50:27;9.23;;;5.32;;
59555;SDS011;45374;52.746;6.304;2022-07-18T11:53:00;12.10;;;5.55;;
59555;SDS011;45374;52.746;6.304;2022-07-18T11:55:35;15.93;;;5.45;;
59555;SDS011;45374;52.746;6.304;2022-07-18T11:58:08;10.32;;;5.00;;
59555;SDS011;45374;52.746;6.304;2022-07-18T12:00:35;11.80;;;5.18;;
59555;SDS011;45374;52.746;6.304;2022-07-18T12:05:40;10.98;;;5.47;;
59555;SDS011;45374;52.746;6.304;2022-07-18T12:13:43;11.90;;;5.35;;
59555;SDS011;45374;52.746;6.304;2022-07-18T12:16:29;10.55;;;5.20;;
59555;SDS011;45374;52.746;6.304;2022-07-18T12:35:15;10.95;;;4.88;;
59555;SDS011;45374;52.746;6.304;2022-07-18T12:40:19;9.05;;;4.97;;
59555;SDS011;45374;52.746;6.304;2022-07-18T12:42:45;9.70;;;5.00;;
59555;SDS011;45374;52.746;6.304;2022-07-18T12:45:11;10.15;;;5.00;;
59555;SDS011;45374;52.746;6.304;2022-07-18T12:47:38;13.38;;;5.40;;
59555;SDS011;45374;52.746;6.304;2022-07-18T12:50:04;13.02;;;4.95;;
59555;SDS011;45374;52.746;6.304;2022-07-18T12:52:31;10.38;;;5.05;;
59555;SDS011;45374;52.746;6.304;2022-07-18T12:54:57;8.77;;;4.82;;
59555;SDS011;45374;52.746;6.304;2022-07-18T12:57:23;11.45;;;5.05;;
59555;SDS011;45374;52.746;6.304;2022-07-18T12:59:48;11.75;;;4.95;;
59555;SDS011;45374;52.746;6.304;2022-07-18T13:02:14;10.52;;;5.03;;
59555;SDS011;45374;52.746;6.304;2022-07-18T13:04:41;9.82;;;5.50;;
59555;SDS011;45374;52.746;6.304;2022-07-18T13:07:07;10.43;;;5.22;;
59555;SDS011;45374;52.746;6.304;2022-07-18T13:09:32;35.00;;;6.00;;
59555;SDS011;45374;52.746;6.304;2022-07-18T13:15:39;8.75;;;4.20;;
59555;SDS011;45374;52.746;6.304;2022-07-18T13:18:05;12.60;;;4.80;;
59555;SDS011;45374;52.746;6.304;2022-07-18T13:20:30;9.70;;;4.88;;
59555;SDS011;45374;52.746;6.304;2022-07-18T13:22:57;8.30;;;4.25;;
59555;SDS011;45374;52.746;6.304;2022-07-18T13:25:26;10.93;;;4.40;;
59555;SDS011;45374;52.746;6.304;2022-07-18T13:27:52;9.55;;;4.40;;
59555;SDS011;45374;52.746;6.304;2022-07-18T13:30:18;10.55;;;4.75;;
59555;SDS011;45374;52.746;6.304;2022-07-18T13:32:44;12.32;;;5.50;;
59555;SDS011;45374;52.746;6.304;2022-07-18T13:35:10;11.07;;;5.43;;
59555;SDS011;45374;52.746;6.304;2022-07-18T13:37:36;14.23;;;6.00;;
59555;SDS011;45374;52.746;6.304;2022-07-18T13:40:02;14.70;;;5.20;;
59555;SDS011;45374;52.746;6.304;2022-07-18T13:42:28;8.45;;;4.97;;
59555;SDS011;45374;52.746;6.304;2022-07-18T13:44:54;12.07;;;5.43;;
59555;SDS011;45374;52.746;6.304;2022-07-18T13:47:19;12.95;;;5.07;;
59555;SDS011;45374;52.746;6.304;2022-07-18T13:49:45;9.40;;;5.10;;
59555;SDS011;45374;52.746;6.304;2022-07-18T13:52:12;8.70;;;5.10;;
59555;SDS011;45374;52.746;6.304;2022-07-18T13:54:38;11.90;;;5.50;;
59555;SDS011;45374;52.746;6.304;2022-07-18T13:57:03;9.32;;;5.38;;
59555;SDS011;45374;52.746;6.304;2022-07-18T13:59:29;12.27;;;5.25;;
59555;SDS011;45374;52.746;6.304;2022-07-18T14:01:55;12.88;;;5.43;;
59555;SDS011;45374;52.746;6.304;2022-07-18T14:04:20;17.92;;;5.57;;
59555;SDS011;45374;52.746;6.304;2022-07-18T14:06:46;11.48;;;5.25;;
59555;SDS011;45374;52.746;6.304;2022-07-18T14:09:12;11.52;;;5.70;;
59555;SDS011;45374;52.746;6.304;2022-07-18T14:11:38;11.80;;;5.80;;
59555;SDS011;45374;52.746;6.304;2022-07-18T14:14:04;6.93;;;4.55;;
59555;SDS011;45374;52.746;6.304;2022-07-18T14:16:30;11.40;;;5.55;;
59555;SDS011;45374;52.746;6.304;2022-07-18T14:18:56;9.68;;;5.00;;
59555;SDS011;45374;52.746;6.304;2022-07-18T14:21:22;9.27;;;4.97;;
59555;SDS011;45374;52.746;6.304;2022-07-18T14:23:48;12.30;;;4.43;;
59555;SDS011;45374;52.746;6.304;2022-07-18T14:26:14;11.57;;;4.78;;
59555;SDS011;45374;52.746;6.304;2022-07-18T14:28:40;10.02;;;4.88;;
59555;SDS011;45374;52.746;6.304;2022-07-18T14:31:05;8.63;;;5.00;;
59555;SDS011;45374;52.746;6.304;2022-07-18T14:33:31;8.27;;;5.03;;
59555;SDS011;45374;52.746;6.304;2022-07-18T14:35:57;8.32;;;5.00;;
59555;SDS011;45374;52.746;6.304;2022-07-18T14:38:22;8.82;;;4.88;;
59555;SDS011;45374;52.746;6.304;2022-07-18T14:40:55;10.35;;;4.82;;
59555;SDS011;45374;52.746;6.304;2022-07-18T14:43:21;11.52;;;5.18;;
59555;SDS011;45374;52.746;6.304;2022-07-18T14:45:46;11.88;;;4.72;;
59555;SDS011;45374;52.746;6.304;2022-07-18T14:48:13;15.10;;;5.05;;
59555;SDS011;45374;52.746;6.304;2022-07-18T14:50:39;8.68;;;4.80;;
59555;SDS011;45374;52.746;6.304;2022-07-18T14:53:05;12.35;;;5.13;;
59555;SDS011;45374;52.746;6.304;2022-07-18T14:55:31;14.23;;;5.28;;
59555;SDS011;45374;52.746;6.304;2022-07-18T14:57:56;9.32;;;4.90;;
59555;SDS011;45374;52.746;6.304;2022-07-18T15:00:22;12.82;;;5.10;;
59555;SDS011;45374;52.746;6.304;2022-07-18T15:02:47;10.18;;;4.47;;
59555;SDS011;45374;52.746;6.304;2022-07-18T15:05:13;8.98;;;4.63;;
59555;SDS011;45374;52.746;6.304;2022-07-18T15:07:39;10.85;;;5.07;;
59555;SDS011;45374;52.746;6.304;2022-07-18T15:10:05;14.57;;;5.30;;
59555;SDS011;45374;52.746;6.304;2022-07-18T15:12:31;11.90;;;4.53;;
59555;SDS011;45374;52.746;6.304;2022-07-18T15:14:57;10.15;;;5.13;;
59555;SDS011;45374;52.746;6.304;2022-07-18T15:17:23;12.35;;;4.80;;
59555;SDS011;45374;52.746;6.304;2022-07-18T15:19:50;10.60;;;4.43;;
59555;SDS011;45374;52.746;6.304;2022-07-18T15:22:16;10.95;;;4.30;;
59555;SDS011;45374;52.746;6.304;2022-07-18T15:24:42;8.77;;;4.30;;
59555;SDS011;45374;52.746;6.304;2022-07-18T15:27:07;9.95;;;4.75;;
59555;SDS011;45374;52.746;6.304;2022-07-18T15:29:33;9.15;;;4.30;;
59555;SDS011;45374;52.746;6.304;2022-07-18T15:31:58;8.32;;;4.55;;
59555;SDS011;45374;52.746;6.304;2022-07-18T15:34:24;9.30;;;4.43;;
59555;SDS011;45374;52.746;6.304;2022-07-18T15:36:50;8.98;;;4.65;;
59555;SDS011;45374;52.746;6.304;2022-07-18T15:39:16;7.22;;;4.20;;
59555;SDS011;45374;52.746;6.304;2022-07-18T15:41:42;10.25;;;4.90;;
59555;SDS011;45374;52.746;6.304;2022-07-18T15:44:08;7.93;;;4.60;;
59555;SDS011;45374;52.746;6.304;2022-07-18T15:46:34;11.60;;;4.88;;
59555;SDS011;45374;52.746;6.304;2022-07-18T15:49:00;11.20;;;5.18;;
59555;SDS011;45374;52.746;6.304;2022-07-18T15:51:26;8.98;;;4.72;;
59555;SDS011;45374;52.746;6.304;2022-07-18T15:53:52;6.57;;;4.50;;
59555;SDS011;45374;52.746;6.304;2022-07-18T15:56:17;9.05;;;5.07;;
59555;SDS011;45374;52.746;6.304;2022-07-18T15:58:43;11.00;;;4.75;;
59555;SDS011;45374;52.746;6.304;2022-07-18T16:01:09;8.00;;;4.40;;
59555;SDS011;45374;52.746;6.304;2022-07-18T16:03:52;9.80;;;4.38;;
59555;SDS011;45374;52.746;6.304;2022-07-18T16:06:18;9.65;;;4.97;;
59555;SDS011;45374;52.746;6.304;2022-07-18T16:08:43;10.13;;;4.70;;
59555;SDS011;45374;52.746;6.304;2022-07-18T16:11:09;10.35;;;4.97;;
59555;SDS011;45374;52.746;6.304;2022-07-18T16:13:36;9.38;;;5.03;;
59555;SDS011;45374;52.746;6.304;2022-07-18T16:16:02;10.95;;;4.80;;
59555;SDS011;45374;52.746;6.304;2022-07-18T16:22:08;9.18;;;5.13;;
59555;SDS011;45374;52.746;6.304;2022-07-18T16:24:34;9.98;;;4.40;;
59555;SDS011;45374;52.746;6.304;2022-07-18T16:27:00;9.38;;;4.32;;
59555;SDS011;45374;52.746;6.304;2022-07-18T16:29:26;9.85;;;4.70;;
59555;SDS011;45374;52.746;6.304;2022-07-18T16:31:52;10.90;;;4.63;;